sensor_id;sensor_type;location;lat;lon;timestamp;P1;durP1;ratioP1;P2;durP2;ratioP2
55015;SDS011;40919;43.236;21.590;2022-08-11T00:00:07;14.68;;;11.90;;
55015;SDS011;40919;43.236;21.590;2022-08-11T00:02:40;15.85;;;12.52;;
55015;SDS011;40919;43.236;21.590;2022-08-11T00:05:10;15.80;;;12.95;;
55015;SDS011;40919;43.236;21.590;2022-08-11T00:07:49;17.50;;;11.95;;
55015;SDS011;40919;43.236;21.590;2022-08-11T00:10:21;16.98;;;13.00;;
55015;SDS011;40919;43.236;21.590;2022-08-11T00:12:52;15.65;;;12.82;;
55015;SDS011;40919;43.236;21.590;2022-08-11T00:15:20;14.80;;;11.85;;
55015;SDS011;40919;43.236;21.590;2022-08-11T00:17:46;19.90;;;11.48;;
55015;SDS011;40919;43.236;21.590;2022-08-11T00:20:13;17.10;;;11.88;;
55015;SDS011;40919;43.236;21.590;2022-08-11T00:22:42;16.08;;;12.02;;
55015;SDS011;40919;43.236;21.590;2022-08-11T00:25:13;15.90;;;10.75;;
55015;SDS011;40919;43.236;21.590;2022-08-11T00:27:39;14.32;;;11.88;;
55015;SDS011;40919;43.236;21.590;2022-08-11T00:30:07;13.20;;;11.30;;
55015;SDS011;40919;43.236;21.590;2022-08-11T00:32:34;13.48;;;11.70;;
55015;SDS011;40919;43.236;21.590;2022-08-11T00:35:00;17.48;;;11.50;;
55015;SDS011;40919;43.236;21.590;2022-08-11T00:37:27;14.48;;;11.70;;
55015;SDS011;40919;43.236;21.590;2022-08-11T00:39:54;15.80;;;11.25;;
55015;SDS011;40919;43.236;21.590;2022-08-11T01:01:44;13.48;;;10.40;;
55015;SDS011;40919;43.236;21.590;2022-08-11T01:12:44;11.68;;;9.57;;
55015;SDS011;40919;43.236;21.590;2022-08-11T01:26:42;11.25;;;10.07;;
55015;SDS011;40919;43.236;21.590;2022-08-11T01:29:23;12.73;;;9.80;;
55015;SDS011;40919;43.236;21.590;2022-08-11T01:35:33;11.55;;;9.40;;
55015;SDS011;40919;43.236;21.590;2022-08-11T01:37:57;12.73;;;10.52;;
55015;SDS011;40919;43.236;21.590;2022-08-11T01:43:09;13.45;;;11.15;;
55015;SDS011;40919;43.236;21.590;2022-08-11T01:46:03;12.45;;;9.80;;
55015;SDS011;40919;43.236;21.590;2022-08-11T01:51:22;11.25;;;9.50;;
55015;SDS011;40919;43.236;21.590;2022-08-11T02:03:54;13.25;;;8.68;;
55015;SDS011;40919;43.236;21.590;2022-08-11T02:09:09;13.48;;;9.05;;
55015;SDS011;40919;43.236;21.590;2022-08-11T02:11:38;13.93;;;8.95;;
55015;SDS011;40919;43.236;21.590;2022-08-11T02:14:16;10.65;;;9.13;;
55015;SDS011;40919;43.236;21.590;2022-08-11T02:19:32;10.60;;;8.57;;
55015;SDS011;40919;43.236;21.590;2022-08-11T02:22:29;11.00;;;8.80;;
55015;SDS011;40919;43.236;21.590;2022-08-11T02:25:36;12.75;;;8.73;;
55015;SDS011;40919;43.236;21.590;2022-08-11T02:28:09;12.05;;;8.82;;
55015;SDS011;40919;43.236;21.590;2022-08-11T02:30:37;10.40;;;7.65;;
55015;SDS011;40919;43.236;21.590;2022-08-11T02:33:07;12.80;;;8.43;;
55015;SDS011;40919;43.236;21.590;2022-08-11T02:49:46;11.38;;;7.70;;
55015;SDS011;40919;43.236;21.590;2022-08-11T02:57:20;12.93;;;8.00;;
55015;SDS011;40919;43.236;21.590;2022-08-11T02:59:52;9.30;;;7.68;;
55015;SDS011;40919;43.236;21.590;2022-08-11T03:05:04;10.63;;;8.02;;
55015;SDS011;40919;43.236;21.590;2022-08-11T03:07:50;12.30;;;7.95;;
55015;SDS011;40919;43.236;21.590;2022-08-11T03:13:15;8.85;;;7.47;;
55015;SDS011;40919;43.236;21.590;2022-08-11T03:32:28;11.75;;;8.00;;
55015;SDS011;40919;43.236;21.590;2022-08-11T03:34:56;12.52;;;8.73;;
55015;SDS011;40919;43.236;21.590;2022-08-11T03:43:17;12.13;;;8.32;;
55015;SDS011;40919;43.236;21.590;2022-08-11T03:45:54;12.35;;;8.23;;
55015;SDS011;40919;43.236;21.590;2022-08-11T03:48:36;10.68;;;8.10;;
55015;SDS011;40919;43.236;21.590;2022-08-11T03:51:21;11.05;;;8.38;;
55015;SDS011;40919;43.236;21.590;2022-08-11T04:31:29;12.25;;;7.43;;
55015;SDS011;40919;43.236;21.590;2022-08-11T04:34:43;11.55;;;7.45;;
55015;SDS011;40919;43.236;21.590;2022-08-11T04:40:33;10.70;;;8.00;;
55015;SDS011;40919;43.236;21.590;2022-08-11T05:01:26;12.73;;;7.75;;
55015;SDS011;40919;43.236;21.590;2022-08-11T05:07:07;10.85;;;7.13;;
55015;SDS011;40919;43.236;21.590;2022-08-11T05:15:23;9.13;;;6.53;;
55015;SDS011;40919;43.236;21.590;2022-08-11T05:18:23;19.38;;;8.43;;
55015;SDS011;40919;43.236;21.590;2022-08-11T05:21:11;12.18;;;7.85;;
55015;SDS011;40919;43.236;21.590;2022-08-11T05:23:57;14.50;;;8.07;;
55015;SDS011;40919;43.236;21.590;2022-08-11T05:26:49;17.02;;;9.35;;
55015;SDS011;40919;43.236;21.590;2022-08-11T05:29:39;8.38;;;6.68;;
55015;SDS011;40919;43.236;21.590;2022-08-11T05:32:35;10.02;;;6.60;;
55015;SDS011;40919;43.236;21.590;2022-08-11T05:35:24;18.15;;;7.85;;
55015;SDS011;40919;43.236;21.590;2022-08-11T05:41:32;13.43;;;7.38;;
55015;SDS011;40919;43.236;21.590;2022-08-11T05:44:17;16.50;;;7.20;;
55015;SDS011;40919;43.236;21.590;2022-08-11T05:47:03;12.27;;;6.45;;
55015;SDS011;40919;43.236;21.590;2022-08-11T05:49:48;16.63;;;6.68;;
55015;SDS011;40919;43.236;21.590;2022-08-11T05:52:34;9.27;;;5.85;;
55015;SDS011;40919;43.236;21.590;2022-08-11T05:55:19;11.45;;;6.90;;
55015;SDS011;40919;43.236;21.590;2022-08-11T05:58:06;11.65;;;7.78;;
55015;SDS011;40919;43.236;21.590;2022-08-11T06:00:41;10.95;;;6.55;;
55015;SDS011;40919;43.236;21.590;2022-08-11T06:03:09;11.05;;;6.38;;
55015;SDS011;40919;43.236;21.590;2022-08-11T06:05:44;11.15;;;7.40;;
55015;SDS011;40919;43.236;21.590;2022-08-11T06:08:11;9.40;;;6.10;;
55015;SDS011;40919;43.236;21.590;2022-08-11T06:10:42;7.20;;;5.75;;
55015;SDS011;40919;43.236;21.590;2022-08-11T06:13:09;12.27;;;6.82;;
55015;SDS011;40919;43.236;21.590;2022-08-11T06:15:47;8.77;;;6.97;;
55015;SDS011;40919;43.236;21.590;2022-08-11T06:18:13;10.60;;;6.70;;
55015;SDS011;40919;43.236;21.590;2022-08-11T06:20:50;8.82;;;6.97;;
55015;SDS011;40919;43.236;21.590;2022-08-11T06:23:21;11.23;;;7.07;;
55015;SDS011;40919;43.236;21.590;2022-08-11T06:25:50;11.00;;;6.18;;
55015;SDS011;40919;43.236;21.590;2022-08-11T06:28:17;12.00;;;7.00;;
55015;SDS011;40919;43.236;21.590;2022-08-11T06:30:46;11.18;;;6.72;;
55015;SDS011;40919;43.236;21.590;2022-08-11T06:41:33;13.60;;;7.88;;
55015;SDS011;40919;43.236;21.590;2022-08-11T06:46:41;8.82;;;6.18;;
55015;SDS011;40919;43.236;21.590;2022-08-11T06:49:15;13.77;;;6.38;;
55015;SDS011;40919;43.236;21.590;2022-08-11T06:52:09;11.32;;;6.30;;
55015;SDS011;40919;43.236;21.590;2022-08-11T06:54:42;9.77;;;6.00;;
55015;SDS011;40919;43.236;21.590;2022-08-11T06:57:13;10.30;;;5.93;;
55015;SDS011;40919;43.236;21.590;2022-08-11T06:59:58;12.40;;;6.15;;
55015;SDS011;40919;43.236;21.590;2022-08-11T07:02:47;10.13;;;5.68;;
55015;SDS011;40919;43.236;21.590;2022-08-11T07:08:28;8.30;;;5.45;;
55015;SDS011;40919;43.236;21.590;2022-08-11T07:11:53;12.43;;;5.65;;
55015;SDS011;40919;43.236;21.590;2022-08-11T07:14:11;7.45;;;5.10;;
55015;SDS011;40919;43.236;21.590;2022-08-11T07:17:00;10.00;;;6.65;;
55015;SDS011;40919;43.236;21.590;2022-08-11T07:19:27;11.38;;;5.45;;
55015;SDS011;40919;43.236;21.590;2022-08-11T07:22:12;10.43;;;5.25;;
55015;SDS011;40919;43.236;21.590;2022-08-11T07:25:12;9.77;;;5.20;;
55015;SDS011;40919;43.236;21.590;2022-08-11T07:28:02;8.63;;;5.22;;
55015;SDS011;40919;43.236;21.590;2022-08-11T07:30:49;9.75;;;5.07;;
55015;SDS011;40919;43.236;21.590;2022-08-11T07:33:18;7.93;;;4.72;;
55015;SDS011;40919;43.236;21.590;2022-08-11T07:36:02;6.85;;;4.72;;
55015;SDS011;40919;43.236;21.590;2022-08-11T07:38:38;8.60;;;5.18;;
55015;SDS011;40919;43.236;21.590;2022-08-11T07:41:10;10.82;;;4.72;;
55015;SDS011;40919;43.236;21.590;2022-08-11T07:43:41;8.90;;;4.90;;
55015;SDS011;40919;43.236;21.590;2022-08-11T07:46:13;8.90;;;4.68;;
55015;SDS011;40919;43.236;21.590;2022-08-11T07:48:58;10.27;;;4.95;;
55015;SDS011;40919;43.236;21.590;2022-08-11T07:51:44;4.95;;;3.92;;
55015;SDS011;40919;43.236;21.590;2022-08-11T07:54:29;8.27;;;4.40;;
55015;SDS011;40919;43.236;21.590;2022-08-11T07:56:55;5.57;;;4.28;;
55015;SDS011;40919;43.236;21.590;2022-08-11T07:59:23;6.13;;;3.75;;
55015;SDS011;40919;43.236;21.590;2022-08-11T08:02:08;8.05;;;4.40;;
55015;SDS011;40919;43.236;21.590;2022-08-11T08:04:54;7.07;;;4.63;;
55015;SDS011;40919;43.236;21.590;2022-08-11T08:07:40;8.32;;;4.00;;
55015;SDS011;40919;43.236;21.590;2022-08-11T08:10:25;7.43;;;4.25;;
55015;SDS011;40919;43.236;21.590;2022-08-11T08:13:18;6.70;;;4.28;;
55015;SDS011;40919;43.236;21.590;2022-08-11T08:16:02;5.80;;;3.80;;
55015;SDS011;40919;43.236;21.590;2022-08-11T08:18:49;7.28;;;5.10;;
55015;SDS011;40919;43.236;21.590;2022-08-11T08:21:16;7.88;;;4.55;;
55015;SDS011;40919;43.236;21.590;2022-08-11T08:23:44;14.93;;;5.85;;
55015;SDS011;40919;43.236;21.590;2022-08-11T08:26:14;8.13;;;5.47;;
55015;SDS011;40919;43.236;21.590;2022-08-11T08:29:00;9.73;;;4.75;;
55015;SDS011;40919;43.236;21.590;2022-08-11T08:31:47;6.40;;;3.40;;
55015;SDS011;40919;43.236;21.590;2022-08-11T08:34:14;6.97;;;4.13;;
55015;SDS011;40919;43.236;21.590;2022-08-11T08:36:41;8.80;;;4.57;;
55015;SDS011;40919;43.236;21.590;2022-08-11T08:39:10;5.80;;;4.20;;
55015;SDS011;40919;43.236;21.590;2022-08-11T08:41:38;6.32;;;4.05;;
55015;SDS011;40919;43.236;21.590;2022-08-11T08:44:10;6.55;;;4.38;;
55015;SDS011;40919;43.236;21.590;2022-08-11T08:46:42;7.28;;;4.00;;
55015;SDS011;40919;43.236;21.590;2022-08-11T08:49:14;7.43;;;4.07;;
55015;SDS011;40919;43.236;21.590;2022-08-11T08:51:43;8.23;;;3.65;;
55015;SDS011;40919;43.236;21.590;2022-08-11T08:54:18;6.13;;;3.80;;
55015;SDS011;40919;43.236;21.590;2022-08-11T08:56:47;5.72;;;4.22;;
55015;SDS011;40919;43.236;21.590;2022-08-11T08:59:15;6.15;;;4.15;;
55015;SDS011;40919;43.236;21.590;2022-08-11T09:01:47;5.88;;;3.83;;
55015;SDS011;40919;43.236;21.590;2022-08-11T09:04:21;7.00;;;3.60;;
55015;SDS011;40919;43.236;21.590;2022-08-11T09:06:49;8.73;;;4.30;;
55015;SDS011;40919;43.236;21.590;2022-08-11T09:09:15;8.68;;;3.55;;
55015;SDS011;40919;43.236;21.590;2022-08-11T09:11:42;8.32;;;3.90;;
55015;SDS011;40919;43.236;21.590;2022-08-11T09:14:22;4.70;;;3.50;;
55015;SDS011;40919;43.236;21.590;2022-08-11T09:16:50;8.00;;;3.50;;
55015;SDS011;40919;43.236;21.590;2022-08-11T09:19:19;7.13;;;3.35;;
55015;SDS011;40919;43.236;21.590;2022-08-11T09:21:49;5.50;;;3.45;;
55015;SDS011;40919;43.236;21.590;2022-08-11T09:24:45;4.65;;;3.20;;
55015;SDS011;40919;43.236;21.590;2022-08-11T09:27:36;9.20;;;3.88;;
55015;SDS011;40919;43.236;21.590;2022-08-11T09:30:17;6.47;;;3.63;;
55015;SDS011;40919;43.236;21.590;2022-08-11T09:33:42;7.22;;;3.50;;
55015;SDS011;40919;43.236;21.590;2022-08-11T09:36:14;7.13;;;3.60;;
55015;SDS011;40919;43.236;21.590;2022-08-11T09:39:03;5.13;;;3.08;;
55015;SDS011;40919;43.236;21.590;2022-08-11T09:41:48;6.68;;;2.60;;
55015;SDS011;40919;43.236;21.590;2022-08-11T09:47:27;4.03;;;2.80;;
55015;SDS011;40919;43.236;21.590;2022-08-11T09:49:58;4.45;;;2.67;;
55015;SDS011;40919;43.236;21.590;2022-08-11T09:52:25;5.20;;;2.50;;
55015;SDS011;40919;43.236;21.590;2022-08-11T09:54:53;5.32;;;2.80;;
55015;SDS011;40919;43.236;21.590;2022-08-11T09:57:20;4.70;;;2.85;;
55015;SDS011;40919;43.236;21.590;2022-08-11T10:00:11;6.07;;;2.88;;
55015;SDS011;40919;43.236;21.590;2022-08-11T10:02:43;5.78;;;3.28;;
55015;SDS011;40919;43.236;21.590;2022-08-11T10:05:13;3.90;;;2.78;;
55015;SDS011;40919;43.236;21.590;2022-08-11T10:08:00;5.75;;;2.70;;
55015;SDS011;40919;43.236;21.590;2022-08-11T10:10:27;3.95;;;2.63;;
55015;SDS011;40919;43.236;21.590;2022-08-11T10:15:48;9.48;;;3.25;;
55015;SDS011;40919;43.236;21.590;2022-08-11T10:18:39;5.80;;;2.88;;
55015;SDS011;40919;43.236;21.590;2022-08-11T10:21:49;6.93;;;4.47;;
55015;SDS011;40919;43.236;21.590;2022-08-11T10:28:20;7.10;;;2.80;;
55015;SDS011;40919;43.236;21.590;2022-08-11T10:31:20;5.53;;;2.67;;
55015;SDS011;40919;43.236;21.590;2022-08-11T10:34:12;4.22;;;2.30;;
55015;SDS011;40919;43.236;21.590;2022-08-11T10:40:00;5.07;;;2.53;;
55015;SDS011;40919;43.236;21.590;2022-08-11T10:42:35;3.33;;;2.33;;
55015;SDS011;40919;43.236;21.590;2022-08-11T10:48:36;4.43;;;2.20;;
55015;SDS011;40919;43.236;21.590;2022-08-11T10:51:06;3.80;;;2.30;;
55015;SDS011;40919;43.236;21.590;2022-08-11T10:53:40;4.85;;;2.35;;
55015;SDS011;40919;43.236;21.590;2022-08-11T10:56:51;6.90;;;4.15;;
55015;SDS011;40919;43.236;21.590;2022-08-11T10:59:42;5.18;;;2.50;;
55015;SDS011;40919;43.236;21.590;2022-08-11T11:02:12;6.35;;;3.05;;
55015;SDS011;40919;43.236;21.590;2022-08-11T11:07:20;4.00;;;2.78;;
55015;SDS011;40919;43.236;21.590;2022-08-11T11:09:53;9.82;;;3.40;;
55015;SDS011;40919;43.236;21.590;2022-08-11T11:12:30;4.47;;;2.33;;
55015;SDS011;40919;43.236;21.590;2022-08-11T11:15:22;5.28;;;2.88;;
55015;SDS011;40919;43.236;21.590;2022-08-11T11:18:14;5.15;;;2.60;;
55015;SDS011;40919;43.236;21.590;2022-08-11T11:21:03;3.63;;;2.40;;
55015;SDS011;40919;43.236;21.590;2022-08-11T11:29:15;5.10;;;2.22;;
55015;SDS011;40919;43.236;21.590;2022-08-11T11:41:10;5.75;;;2.42;;
55015;SDS011;40919;43.236;21.590;2022-08-11T11:43:49;3.75;;;2.15;;
55015;SDS011;40919;43.236;21.590;2022-08-11T11:46:15;3.97;;;2.30;;
55015;SDS011;40919;43.236;21.590;2022-08-11T11:48:42;4.00;;;2.20;;
55015;SDS011;40919;43.236;21.590;2022-08-11T11:51:09;4.03;;;2.20;;
55015;SDS011;40919;43.236;21.590;2022-08-11T11:53:38;4.63;;;2.30;;
55015;SDS011;40919;43.236;21.590;2022-08-11T11:56:17;4.35;;;2.22;;
55015;SDS011;40919;43.236;21.590;2022-08-11T11:58:45;5.35;;;3.60;;
55015;SDS011;40919;43.236;21.590;2022-08-11T12:01:31;4.45;;;2.88;;
55015;SDS011;40919;43.236;21.590;2022-08-11T12:03:58;4.50;;;2.55;;
55015;SDS011;40919;43.236;21.590;2022-08-11T12:06:25;8.15;;;2.65;;
55015;SDS011;40919;43.236;21.590;2022-08-11T12:08:52;5.05;;;2.10;;
55015;SDS011;40919;43.236;21.590;2022-08-11T12:11:20;8.30;;;2.78;;
55015;SDS011;40919;43.236;21.590;2022-08-11T12:14:07;4.28;;;2.13;;
55015;SDS011;40919;43.236;21.590;2022-08-11T12:16:34;3.60;;;2.17;;
55015;SDS011;40919;43.236;21.590;2022-08-11T12:19:06;5.18;;;2.55;;
55015;SDS011;40919;43.236;21.590;2022-08-11T12:21:37;3.45;;;2.33;;
55015;SDS011;40919;43.236;21.590;2022-08-11T12:24:24;4.18;;;2.42;;
55015;SDS011;40919;43.236;21.590;2022-08-11T12:27:25;7.55;;;2.72;;
55015;SDS011;40919;43.236;21.590;2022-08-11T12:29:54;5.35;;;2.28;;
55015;SDS011;40919;43.236;21.590;2022-08-11T12:32:23;4.97;;;2.58;;
55015;SDS011;40919;43.236;21.590;2022-08-11T12:34:52;3.30;;;2.20;;
55015;SDS011;40919;43.236;21.590;2022-08-11T12:37:21;4.13;;;2.20;;
55015;SDS011;40919;43.236;21.590;2022-08-11T12:39:56;5.28;;;2.35;;
55015;SDS011;40919;43.236;21.590;2022-08-11T12:42:43;6.35;;;4.43;;
55015;SDS011;40919;43.236;21.590;2022-08-11T12:45:29;8.60;;;2.60;;
55015;SDS011;40919;43.236;21.590;2022-08-11T12:48:06;5.78;;;2.78;;
55015;SDS011;40919;43.236;21.590;2022-08-11T12:50:58;5.22;;;2.85;;
55015;SDS011;40919;43.236;21.590;2022-08-11T12:53:50;5.50;;;2.58;;
55015;SDS011;40919;43.236;21.590;2022-08-11T12:56:37;4.20;;;2.45;;
55015;SDS011;40919;43.236;21.590;2022-08-11T12:59:27;4.03;;;2.10;;
55015;SDS011;40919;43.236;21.590;2022-08-11T13:02:16;4.20;;;2.20;;
55015;SDS011;40919;43.236;21.590;2022-08-11T13:05:05;3.50;;;2.10;;
55015;SDS011;40919;43.236;21.590;2022-08-11T13:07:32;3.92;;;2.28;;
55015;SDS011;40919;43.236;21.590;2022-08-11T13:10:05;3.33;;;1.80;;
55015;SDS011;40919;43.236;21.590;2022-08-11T13:12:34;7.20;;;4.82;;
55015;SDS011;40919;43.236;21.590;2022-08-11T13:15:20;4.90;;;3.70;;
55015;SDS011;40919;43.236;21.590;2022-08-11T13:17:47;6.72;;;4.32;;
55015;SDS011;40919;43.236;21.590;2022-08-11T13:20:18;4.22;;;2.25;;
55015;SDS011;40919;43.236;21.590;2022-08-11T13:25:17;4.10;;;1.95;;
55015;SDS011;40919;43.236;21.590;2022-08-11T13:27:45;4.85;;;1.90;;
55015;SDS011;40919;43.236;21.590;2022-08-11T13:30:15;3.35;;;1.95;;
55015;SDS011;40919;43.236;21.590;2022-08-11T13:33:01;6.80;;;5.47;;
55015;SDS011;40919;43.236;21.590;2022-08-11T13:35:32;4.95;;;2.00;;
55015;SDS011;40919;43.236;21.590;2022-08-11T13:38:02;5.78;;;3.38;;
55015;SDS011;40919;43.236;21.590;2022-08-11T13:40:30;5.30;;;2.53;;
55015;SDS011;40919;43.236;21.590;2022-08-11T13:42:57;4.22;;;2.80;;
55015;SDS011;40919;43.236;21.590;2022-08-11T13:45:24;4.03;;;2.13;;
55015;SDS011;40919;43.236;21.590;2022-08-11T13:47:51;6.00;;;1.90;;
55015;SDS011;40919;43.236;21.590;2022-08-11T13:53:10;7.43;;;3.75;;
55015;SDS011;40919;43.236;21.590;2022-08-11T13:55:39;5.03;;;2.83;;
55015;SDS011;40919;43.236;21.590;2022-08-11T13:58:06;6.47;;;2.72;;
55015;SDS011;40919;43.236;21.590;2022-08-11T14:00:34;4.60;;;3.33;;
55015;SDS011;40919;43.236;21.590;2022-08-11T14:03:02;7.10;;;2.88;;
55015;SDS011;40919;43.236;21.590;2022-08-11T14:05:33;6.32;;;3.85;;
55015;SDS011;40919;43.236;21.590;2022-08-11T14:10:29;4.30;;;2.40;;
55015;SDS011;40919;43.236;21.590;2022-08-11T14:12:58;5.03;;;2.70;;
55015;SDS011;40919;43.236;21.590;2022-08-11T14:15:44;4.30;;;2.17;;
55015;SDS011;40919;43.236;21.590;2022-08-11T14:18:16;4.60;;;3.08;;
55015;SDS011;40919;43.236;21.590;2022-08-11T14:20:43;3.20;;;2.28;;
55015;SDS011;40919;43.236;21.590;2022-08-11T14:23:37;3.63;;;2.10;;
55015;SDS011;40919;43.236;21.590;2022-08-11T14:26:04;4.43;;;2.13;;
55015;SDS011;40919;43.236;21.590;2022-08-11T14:28:51;3.13;;;1.75;;
55015;SDS011;40919;43.236;21.590;2022-08-11T14:31:19;3.50;;;2.10;;
55015;SDS011;40919;43.236;21.590;2022-08-11T14:33:46;5.38;;;1.75;;
55015;SDS011;40919;43.236;21.590;2022-08-11T14:36:12;3.40;;;2.03;;
55015;SDS011;40919;43.236;21.590;2022-08-11T14:38:42;3.80;;;2.78;;
55015;SDS011;40919;43.236;21.590;2022-08-11T14:41:14;4.80;;;3.13;;
55015;SDS011;40919;43.236;21.590;2022-08-11T14:43:59;3.63;;;2.10;;
55015;SDS011;40919;43.236;21.590;2022-08-11T14:46:44;8.45;;;2.58;;
55015;SDS011;40919;43.236;21.590;2022-08-11T14:49:35;8.77;;;5.85;;
55015;SDS011;40919;43.236;21.590;2022-08-11T14:52:03;4.65;;;3.20;;
55015;SDS011;40919;43.236;21.590;2022-08-11T14:54:32;5.47;;;3.72;;
55015;SDS011;40919;43.236;21.590;2022-08-11T14:57:17;5.38;;;2.20;;
55015;SDS011;40919;43.236;21.590;2022-08-11T14:59:44;4.93;;;2.47;;
55015;SDS011;40919;43.236;21.590;2022-08-11T15:02:15;7.28;;;3.63;;
55015;SDS011;40919;43.236;21.590;2022-08-11T15:05:00;3.60;;;2.20;;
55015;SDS011;40919;43.236;21.590;2022-08-11T15:07:27;3.53;;;2.42;;
55015;SDS011;40919;43.236;21.590;2022-08-11T15:10:04;5.63;;;2.50;;
55015;SDS011;40919;43.236;21.590;2022-08-11T15:12:32;3.85;;;2.38;;
55015;SDS011;40919;43.236;21.590;2022-08-11T15:14:58;5.32;;;2.45;;
55015;SDS011;40919;43.236;21.590;2022-08-11T15:17:44;9.82;;;3.72;;
55015;SDS011;40919;43.236;21.590;2022-08-11T15:20:14;6.63;;;2.80;;
55015;SDS011;40919;43.236;21.590;2022-08-11T15:22:59;8.38;;;2.92;;
55015;SDS011;40919;43.236;21.590;2022-08-11T15:25:45;8.30;;;2.75;;
55015;SDS011;40919;43.236;21.590;2022-08-11T15:28:13;8.77;;;5.25;;
55015;SDS011;40919;43.236;21.590;2022-08-11T15:30:59;4.75;;;3.20;;
55015;SDS011;40919;43.236;21.590;2022-08-11T15:34:06;5.15;;;3.53;;
55015;SDS011;40919;43.236;21.590;2022-08-11T15:36:54;5.20;;;3.72;;
55015;SDS011;40919;43.236;21.590;2022-08-11T15:39:44;4.45;;;2.60;;
55015;SDS011;40919;43.236;21.590;2022-08-11T15:42:29;7.97;;;2.70;;
55015;SDS011;40919;43.236;21.590;2022-08-11T15:45:14;8.60;;;3.15;;
55015;SDS011;40919;43.236;21.590;2022-08-11T15:48:05;5.30;;;3.50;;
55015;SDS011;40919;43.236;21.590;2022-08-11T15:53:01;4.78;;;2.30;;
55015;SDS011;40919;43.236;21.590;2022-08-11T15:55:28;6.30;;;3.78;;
55015;SDS011;40919;43.236;21.590;2022-08-11T15:57:56;4.85;;;2.83;;
55015;SDS011;40919;43.236;21.590;2022-08-11T16:00:46;8.02;;;3.10;;
55015;SDS011;40919;43.236;21.590;2022-08-11T16:03:35;5.40;;;3.33;;
55015;SDS011;40919;43.236;21.590;2022-08-11T16:06:24;7.88;;;3.20;;
55015;SDS011;40919;43.236;21.590;2022-08-11T16:08:51;4.90;;;2.45;;
55015;SDS011;40919;43.236;21.590;2022-08-11T16:11:20;4.90;;;2.78;;
55015;SDS011;40919;43.236;21.590;2022-08-11T16:13:47;3.75;;;2.53;;
55015;SDS011;40919;43.236;21.590;2022-08-11T16:16:33;9.02;;;3.00;;
55015;SDS011;40919;43.236;21.590;2022-08-11T16:19:02;7.90;;;3.13;;
55015;SDS011;40919;43.236;21.590;2022-08-11T16:21:31;6.55;;;5.13;;
55015;SDS011;40919;43.236;21.590;2022-08-11T16:23:58;5.05;;;2.88;;
55015;SDS011;40919;43.236;21.590;2022-08-11T16:26:25;4.65;;;2.63;;
55015;SDS011;40919;43.236;21.590;2022-08-11T16:28:55;6.10;;;3.15;;
55015;SDS011;40919;43.236;21.590;2022-08-11T16:31:23;3.70;;;2.30;;
55015;SDS011;40919;43.236;21.590;2022-08-11T16:33:50;12.13;;;7.22;;
55015;SDS011;40919;43.236;21.590;2022-08-11T16:36:17;10.40;;;7.85;;
55015;SDS011;40919;43.236;21.590;2022-08-11T16:39:02;5.60;;;3.15;;
55015;SDS011;40919;43.236;21.590;2022-08-11T16:41:30;3.72;;;2.40;;
55015;SDS011;40919;43.236;21.590;2022-08-11T16:44:15;5.68;;;3.30;;
55015;SDS011;40919;43.236;21.590;2022-08-11T16:47:01;4.65;;;2.25;;
55015;SDS011;40919;43.236;21.590;2022-08-11T16:51:56;4.50;;;2.38;;
55015;SDS011;40919;43.236;21.590;2022-08-11T16:54:22;9.80;;;6.95;;
55015;SDS011;40919;43.236;21.590;2022-08-11T16:56:49;13.85;;;9.20;;
55015;SDS011;40919;43.236;21.590;2022-08-11T16:59:49;5.40;;;3.53;;
55015;SDS011;40919;43.236;21.590;2022-08-11T17:02:09;9.00;;;2.97;;
55015;SDS011;40919;43.236;21.590;2022-08-11T17:04:59;6.63;;;4.97;;
55015;SDS011;40919;43.236;21.590;2022-08-11T17:07:59;8.57;;;5.05;;
55015;SDS011;40919;43.236;21.590;2022-08-11T17:11:07;8.68;;;3.00;;
55015;SDS011;40919;43.236;21.590;2022-08-11T17:13:54;5.47;;;2.60;;
55015;SDS011;40919;43.236;21.590;2022-08-11T17:16:24;5.97;;;2.80;;
55015;SDS011;40919;43.236;21.590;2022-08-11T17:18:57;5.65;;;2.80;;
55015;SDS011;40919;43.236;21.590;2022-08-11T17:21:25;8.68;;;3.80;;
55015;SDS011;40919;43.236;21.590;2022-08-11T17:24:15;7.07;;;2.95;;
55015;SDS011;40919;43.236;21.590;2022-08-11T17:26:41;5.68;;;3.10;;
55015;SDS011;40919;43.236;21.590;2022-08-11T17:29:24;7.57;;;3.80;;
55015;SDS011;40919;43.236;21.590;2022-08-11T17:32:01;6.50;;;3.00;;
55015;SDS011;40919;43.236;21.590;2022-08-11T17:34:48;6.75;;;4.10;;
55015;SDS011;40919;43.236;21.590;2022-08-11T17:37:35;7.93;;;3.10;;
55015;SDS011;40919;43.236;21.590;2022-08-11T17:40:04;6.50;;;3.20;;
55015;SDS011;40919;43.236;21.590;2022-08-11T17:42:33;7.18;;;3.28;;
55015;SDS011;40919;43.236;21.590;2022-08-11T17:45:19;6.68;;;3.60;;
55015;SDS011;40919;43.236;21.590;2022-08-11T17:48:05;5.05;;;2.70;;
55015;SDS011;40919;43.236;21.590;2022-08-11T17:50:51;13.85;;;3.88;;
55015;SDS011;40919;43.236;21.590;2022-08-11T17:53:25;11.75;;;5.35;;
55015;SDS011;40919;43.236;21.590;2022-08-11T17:56:12;7.10;;;4.32;;
55015;SDS011;40919;43.236;21.590;2022-08-11T17:58:58;6.32;;;4.20;;
55015;SDS011;40919;43.236;21.590;2022-08-11T18:01:43;8.63;;;4.43;;
55015;SDS011;40919;43.236;21.590;2022-08-11T18:04:13;5.38;;;3.78;;
55015;SDS011;40919;43.236;21.590;2022-08-11T18:06:41;14.52;;;5.70;;
55015;SDS011;40919;43.236;21.590;2022-08-11T18:09:12;9.60;;;4.50;;
55015;SDS011;40919;43.236;21.590;2022-08-11T18:11:59;6.07;;;3.88;;
55015;SDS011;40919;43.236;21.590;2022-08-11T18:14:46;6.80;;;3.67;;
55015;SDS011;40919;43.236;21.590;2022-08-11T18:17:33;5.63;;;3.70;;
55015;SDS011;40919;43.236;21.590;2022-08-11T18:20:22;6.53;;;4.32;;
55015;SDS011;40919;43.236;21.590;2022-08-11T18:23:08;6.57;;;3.90;;
55015;SDS011;40919;43.236;21.590;2022-08-11T18:26:02;6.22;;;4.00;;
55015;SDS011;40919;43.236;21.590;2022-08-11T18:28:49;9.80;;;4.40;;
55015;SDS011;40919;43.236;21.590;2022-08-11T18:31:37;8.02;;;4.53;;
55015;SDS011;40919;43.236;21.590;2022-08-11T18:34:29;5.80;;;4.50;;
55015;SDS011;40919;43.236;21.590;2022-08-11T18:37:16;17.30;;;4.45;;
55015;SDS011;40919;43.236;21.590;2022-08-11T18:40:18;7.32;;;4.82;;
55015;SDS011;40919;43.236;21.590;2022-08-11T18:43:07;7.05;;;4.45;;
55015;SDS011;40919;43.236;21.590;2022-08-11T18:45:58;11.95;;;5.03;;
55015;SDS011;40919;43.236;21.590;2022-08-11T18:48:47;7.80;;;5.32;;
55015;SDS011;40919;43.236;21.590;2022-08-11T18:51:35;7.75;;;4.10;;
55015;SDS011;40919;43.236;21.590;2022-08-11T18:54:20;6.50;;;4.15;;
55015;SDS011;40919;43.236;21.590;2022-08-11T18:57:07;5.75;;;3.10;;
55015;SDS011;40919;43.236;21.590;2022-08-11T18:59:53;7.60;;;3.42;;
55015;SDS011;40919;43.236;21.590;2022-08-11T19:02:41;6.30;;;3.80;;
55015;SDS011;40919;43.236;21.590;2022-08-11T19:05:29;6.82;;;3.08;;
55015;SDS011;40919;43.236;21.590;2022-08-11T19:08:14;6.68;;;2.78;;
55015;SDS011;40919;43.236;21.590;2022-08-11T19:11:02;5.00;;;2.45;;
55015;SDS011;40919;43.236;21.590;2022-08-11T19:13:48;6.80;;;2.75;;
55015;SDS011;40919;43.236;21.590;2022-08-11T19:16:35;7.10;;;3.55;;
55015;SDS011;40919;43.236;21.590;2022-08-11T19:19:20;6.25;;;3.20;;
55015;SDS011;40919;43.236;21.590;2022-08-11T19:22:07;5.88;;;3.40;;
55015;SDS011;40919;43.236;21.590;2022-08-11T19:24:52;6.90;;;3.42;;
55015;SDS011;40919;43.236;21.590;2022-08-11T19:27:39;5.25;;;2.55;;
55015;SDS011;40919;43.236;21.590;2022-08-11T19:30:24;5.40;;;3.28;;
55015;SDS011;40919;43.236;21.590;2022-08-11T19:33:10;8.38;;;2.88;;
55015;SDS011;40919;43.236;21.590;2022-08-11T19:35:55;7.47;;;3.45;;